Terminal Aerodrome Forecast
Issued by NWS

Home | Current Version | Previous Version | Text Only | Print | Product List | Glossary On
Versions: 1 2 3 4 5 6 7 8 9 10 11 12 13 14 15 16 17 18 19 20 21
000
FTUS46 KPDT 270500
TAFYKM
TAF
KYKM 270524Z 2706/2806 28006KT 5SM BR SCT010 BKN060
     FM271200 27003KT 2SM BR OVC003
     FM271500 27004KT 3SM BR OVC003
     FM272100 21008KT P6SM SCT050
     FM280000 16006KT P6SM BKN100=

USA.gov is the U.S. government's official web portal to all federal, state and local government web resources and services.